sensor_id;sensor_type;location;lat;lon;timestamp;P1;durP1;ratioP1;P2;durP2;ratioP2
35326;SDS011;21436;52.348;20.928;2022-08-30T00:01:23;11.13;;;8.13;;
35326;SDS011;21436;52.348;20.928;2022-08-30T00:03:52;10.70;;;8.05;;
35326;SDS011;21436;52.348;20.928;2022-08-30T00:06:21;12.75;;;8.20;;
35326;SDS011;21436;52.348;20.928;2022-08-30T00:08:49;13.38;;;8.80;;
35326;SDS011;21436;52.348;20.928;2022-08-30T00:11:19;16.63;;;8.88;;
35326;SDS011;21436;52.348;20.928;2022-08-30T00:13:49;14.32;;;8.73;;
35326;SDS011;21436;52.348;20.928;2022-08-30T00:16:19;10.00;;;7.60;;
35326;SDS011;21436;52.348;20.928;2022-08-30T00:18:47;13.38;;;8.43;;
35326;SDS011;21436;52.348;20.928;2022-08-30T00:21:15;13.95;;;8.63;;
35326;SDS011;21436;52.348;20.928;2022-08-30T00:23:42;12.70;;;9.10;;
35326;SDS011;21436;52.348;20.928;2022-08-30T00:26:10;12.30;;;9.23;;
35326;SDS011;21436;52.348;20.928;2022-08-30T00:28:37;13.10;;;9.07;;
35326;SDS011;21436;52.348;20.928;2022-08-30T00:31:05;14.05;;;9.88;;
35326;SDS011;21436;52.348;20.928;2022-08-30T00:33:33;14.90;;;9.55;;
35326;SDS011;21436;52.348;20.928;2022-08-30T00:36:01;13.57;;;9.00;;
35326;SDS011;21436;52.348;20.928;2022-08-30T00:38:29;12.70;;;8.80;;
35326;SDS011;21436;52.348;20.928;2022-08-30T00:40:57;11.65;;;8.82;;
35326;SDS011;21436;52.348;20.928;2022-08-30T00:43:26;12.25;;;9.07;;
35326;SDS011;21436;52.348;20.928;2022-08-30T00:45:56;18.38;;;10.07;;
35326;SDS011;21436;52.348;20.928;2022-08-30T00:48:24;12.60;;;8.75;;
35326;SDS011;21436;52.348;20.928;2022-08-30T00:50:53;15.27;;;9.70;;
35326;SDS011;21436;52.348;20.928;2022-08-30T00:53:27;21.35;;;10.23;;
35326;SDS011;21436;52.348;20.928;2022-08-30T00:55:57;15.43;;;9.32;;
35326;SDS011;21436;52.348;20.928;2022-08-30T00:58:26;16.75;;;10.10;;
35326;SDS011;21436;52.348;20.928;2022-08-30T01:00:56;16.25;;;9.65;;
35326;SDS011;21436;52.348;20.928;2022-08-30T01:03:25;15.73;;;9.95;;
35326;SDS011;21436;52.348;20.928;2022-08-30T01:05:53;18.67;;;10.57;;
35326;SDS011;21436;52.348;20.928;2022-08-30T01:08:20;20.20;;;11.05;;
35326;SDS011;21436;52.348;20.928;2022-08-30T01:10:49;15.55;;;10.18;;
35326;SDS011;21436;52.348;20.928;2022-08-30T01:13:18;16.13;;;10.98;;
35326;SDS011;21436;52.348;20.928;2022-08-30T01:15:48;18.38;;;11.18;;
35326;SDS011;21436;52.348;20.928;2022-08-30T01:18:16;19.23;;;11.07;;
35326;SDS011;21436;52.348;20.928;2022-08-30T01:23:35;17.10;;;10.73;;
35326;SDS011;21436;52.348;20.928;2022-08-30T01:26:04;20.58;;;11.32;;
35326;SDS011;21436;52.348;20.928;2022-08-30T01:28:32;16.13;;;11.20;;
35326;SDS011;21436;52.348;20.928;2022-08-30T01:31:00;17.70;;;11.50;;
35326;SDS011;21436;52.348;20.928;2022-08-30T01:33:28;18.42;;;11.10;;
35326;SDS011;21436;52.348;20.928;2022-08-30T01:41:29;15.98;;;11.35;;
35326;SDS011;21436;52.348;20.928;2022-08-30T01:43:59;17.75;;;12.60;;
35326;SDS011;21436;52.348;20.928;2022-08-30T01:46:30;23.65;;;13.05;;
35326;SDS011;21436;52.348;20.928;2022-08-30T01:49:03;22.05;;;12.57;;
35326;SDS011;21436;52.348;20.928;2022-08-30T01:51:34;20.92;;;13.32;;
35326;SDS011;21436;52.348;20.928;2022-08-30T01:54:03;25.17;;;13.68;;
35326;SDS011;21436;52.348;20.928;2022-08-30T01:56:31;20.25;;;13.15;;
35326;SDS011;21436;52.348;20.928;2022-08-30T01:58:59;24.15;;;14.43;;
35326;SDS011;21436;52.348;20.928;2022-08-30T02:01:29;20.80;;;13.48;;
35326;SDS011;21436;52.348;20.928;2022-08-30T02:03:59;19.95;;;13.60;;
35326;SDS011;21436;52.348;20.928;2022-08-30T02:06:26;27.42;;;14.52;;
35326;SDS011;21436;52.348;20.928;2022-08-30T02:08:54;22.10;;;13.85;;
35326;SDS011;21436;52.348;20.928;2022-08-30T02:11:22;22.23;;;13.88;;
35326;SDS011;21436;52.348;20.928;2022-08-30T02:13:49;19.10;;;13.10;;
35326;SDS011;21436;52.348;20.928;2022-08-30T02:16:18;20.55;;;13.80;;
35326;SDS011;21436;52.348;20.928;2022-08-30T02:18:52;20.13;;;13.93;;
35326;SDS011;21436;52.348;20.928;2022-08-30T02:21:21;20.83;;;13.07;;
35326;SDS011;21436;52.348;20.928;2022-08-30T02:23:49;22.80;;;14.18;;
35326;SDS011;21436;52.348;20.928;2022-08-30T02:26:17;22.63;;;13.93;;
35326;SDS011;21436;52.348;20.928;2022-08-30T02:28:45;18.98;;;12.98;;
35326;SDS011;21436;52.348;20.928;2022-08-30T02:31:16;21.17;;;12.75;;
35326;SDS011;21436;52.348;20.928;2022-08-30T02:33:47;23.38;;;13.23;;
35326;SDS011;21436;52.348;20.928;2022-08-30T02:36:17;20.95;;;13.25;;
35326;SDS011;21436;52.348;20.928;2022-08-30T02:38:47;25.85;;;14.20;;
35326;SDS011;21436;52.348;20.928;2022-08-30T02:41:16;23.65;;;13.70;;
35326;SDS011;21436;52.348;20.928;2022-08-30T02:43:44;23.98;;;14.70;;
35326;SDS011;21436;52.348;20.928;2022-08-30T02:46:12;21.63;;;13.70;;
35326;SDS011;21436;52.348;20.928;2022-08-30T02:48:40;19.63;;;13.45;;
35326;SDS011;21436;52.348;20.928;2022-08-30T02:51:09;20.35;;;13.48;;
35326;SDS011;21436;52.348;20.928;2022-08-30T02:53:39;22.02;;;13.98;;
35326;SDS011;21436;52.348;20.928;2022-08-30T02:56:10;23.10;;;14.30;;
35326;SDS011;21436;52.348;20.928;2022-08-30T02:58:39;22.38;;;14.38;;
35326;SDS011;21436;52.348;20.928;2022-08-30T03:01:09;23.02;;;13.57;;
35326;SDS011;21436;52.348;20.928;2022-08-30T03:03:39;23.20;;;13.90;;
35326;SDS011;21436;52.348;20.928;2022-08-30T03:06:07;20.85;;;14.90;;
35326;SDS011;21436;52.348;20.928;2022-08-30T03:08:36;19.77;;;13.20;;
35326;SDS011;21436;52.348;20.928;2022-08-30T03:11:04;23.63;;;14.00;;
35326;SDS011;21436;52.348;20.928;2022-08-30T03:13:31;23.65;;;14.43;;
35326;SDS011;21436;52.348;20.928;2022-08-30T03:15:59;23.23;;;14.65;;
35326;SDS011;21436;52.348;20.928;2022-08-30T03:18:27;20.92;;;13.90;;
35326;SDS011;21436;52.348;20.928;2022-08-30T03:20:54;23.98;;;14.32;;
35326;SDS011;21436;52.348;20.928;2022-08-30T03:23:22;27.80;;;14.82;;
35326;SDS011;21436;52.348;20.928;2022-08-30T03:25:50;25.92;;;15.13;;
35326;SDS011;21436;52.348;20.928;2022-08-30T03:28:18;24.20;;;15.52;;
35326;SDS011;21436;52.348;20.928;2022-08-30T03:30:46;26.02;;;15.05;;
35326;SDS011;21436;52.348;20.928;2022-08-30T03:33:14;27.48;;;14.98;;
35326;SDS011;21436;52.348;20.928;2022-08-30T03:35:44;23.95;;;14.10;;
35326;SDS011;21436;52.348;20.928;2022-08-30T03:38:11;21.48;;;13.45;;
35326;SDS011;21436;52.348;20.928;2022-08-30T03:40:39;22.23;;;15.02;;
35326;SDS011;21436;52.348;20.928;2022-08-30T03:43:07;25.60;;;14.77;;
35326;SDS011;21436;52.348;20.928;2022-08-30T03:45:35;22.90;;;14.18;;
35326;SDS011;21436;52.348;20.928;2022-08-30T03:48:03;25.60;;;15.15;;
35326;SDS011;21436;52.348;20.928;2022-08-30T03:50:30;27.80;;;14.93;;
35326;SDS011;21436;52.348;20.928;2022-08-30T03:52:58;21.50;;;14.18;;
35326;SDS011;21436;52.348;20.928;2022-08-30T03:55:27;23.63;;;15.02;;
35326;SDS011;21436;52.348;20.928;2022-08-30T03:57:56;28.98;;;14.50;;
35326;SDS011;21436;52.348;20.928;2022-08-30T04:00:24;22.33;;;15.45;;
35326;SDS011;21436;52.348;20.928;2022-08-30T04:02:52;22.25;;;14.98;;
35326;SDS011;21436;52.348;20.928;2022-08-30T04:05:19;23.92;;;15.48;;
35326;SDS011;21436;52.348;20.928;2022-08-30T04:07:47;27.38;;;15.75;;
35326;SDS011;21436;52.348;20.928;2022-08-30T04:10:15;27.98;;;15.05;;
35326;SDS011;21436;52.348;20.928;2022-08-30T04:12:42;26.33;;;15.60;;
35326;SDS011;21436;52.348;20.928;2022-08-30T04:15:16;27.05;;;15.43;;
35326;SDS011;21436;52.348;20.928;2022-08-30T04:17:45;27.05;;;15.43;;
35326;SDS011;21436;52.348;20.928;2022-08-30T04:20:13;30.25;;;14.88;;
35326;SDS011;21436;52.348;20.928;2022-08-30T04:22:41;25.85;;;15.82;;
35326;SDS011;21436;52.348;20.928;2022-08-30T04:25:08;22.75;;;15.07;;
35326;SDS011;21436;52.348;20.928;2022-08-30T04:30:10;23.73;;;15.05;;
35326;SDS011;21436;52.348;20.928;2022-08-30T04:32:38;23.88;;;14.60;;
35326;SDS011;21436;52.348;20.928;2022-08-30T04:35:05;23.48;;;14.75;;
35326;SDS011;21436;52.348;20.928;2022-08-30T04:37:34;25.02;;;14.85;;
35326;SDS011;21436;52.348;20.928;2022-08-30T04:40:01;23.02;;;14.52;;
35326;SDS011;21436;52.348;20.928;2022-08-30T04:42:30;27.90;;;15.10;;
35326;SDS011;21436;52.348;20.928;2022-08-30T04:45:17;19.25;;;13.93;;
35326;SDS011;21436;52.348;20.928;2022-08-30T04:47:45;22.05;;;14.73;;
35326;SDS011;21436;52.348;20.928;2022-08-30T04:50:17;23.30;;;13.63;;
35326;SDS011;21436;52.348;20.928;2022-08-30T04:52:46;21.55;;;12.50;;
35326;SDS011;21436;52.348;20.928;2022-08-30T04:55:14;18.00;;;13.00;;
35326;SDS011;21436;52.348;20.928;2022-08-30T04:57:46;18.00;;;12.85;;
35326;SDS011;21436;52.348;20.928;2022-08-30T05:00:14;17.13;;;12.27;;
35326;SDS011;21436;52.348;20.928;2022-08-30T05:02:42;25.73;;;12.15;;
35326;SDS011;21436;52.348;20.928;2022-08-30T05:05:09;20.70;;;12.18;;
35326;SDS011;21436;52.348;20.928;2022-08-30T05:07:56;19.40;;;11.50;;
35326;SDS011;21436;52.348;20.928;2022-08-30T05:10:23;18.83;;;10.98;;
35326;SDS011;21436;52.348;20.928;2022-08-30T05:12:53;21.13;;;10.32;;
35326;SDS011;21436;52.348;20.928;2022-08-30T05:15:21;14.75;;;9.60;;
35326;SDS011;21436;52.348;20.928;2022-08-30T05:17:48;13.88;;;9.90;;
35326;SDS011;21436;52.348;20.928;2022-08-30T05:20:16;14.90;;;8.82;;
35326;SDS011;21436;52.348;20.928;2022-08-30T05:22:43;15.88;;;8.95;;
35326;SDS011;21436;52.348;20.928;2022-08-30T05:25:24;14.80;;;8.48;;
35326;SDS011;21436;52.348;20.928;2022-08-30T05:27:54;15.88;;;8.25;;
35326;SDS011;21436;52.348;20.928;2022-08-30T05:30:23;9.98;;;7.97;;
35326;SDS011;21436;52.348;20.928;2022-08-30T05:32:52;13.00;;;8.13;;
35326;SDS011;21436;52.348;20.928;2022-08-30T05:35:19;11.70;;;8.23;;
35326;SDS011;21436;52.348;20.928;2022-08-30T05:37:51;19.77;;;8.48;;
35326;SDS011;21436;52.348;20.928;2022-08-30T05:40:20;14.75;;;8.32;;
35326;SDS011;21436;52.348;20.928;2022-08-30T05:42:48;13.73;;;8.30;;
35326;SDS011;21436;52.348;20.928;2022-08-30T05:45:16;15.52;;;8.27;;
35326;SDS011;21436;52.348;20.928;2022-08-30T05:47:43;10.02;;;7.03;;
35326;SDS011;21436;52.348;20.928;2022-08-30T05:50:11;11.85;;;6.75;;
35326;SDS011;21436;52.348;20.928;2022-08-30T05:52:40;10.77;;;6.63;;
35326;SDS011;21436;52.348;20.928;2022-08-30T05:55:09;7.88;;;6.60;;
35326;SDS011;21436;52.348;20.928;2022-08-30T05:57:38;9.70;;;6.30;;
35326;SDS011;21436;52.348;20.928;2022-08-30T06:00:08;11.82;;;6.45;;
35326;SDS011;21436;52.348;20.928;2022-08-30T06:02:40;8.75;;;6.43;;
35326;SDS011;21436;52.348;20.928;2022-08-30T06:05:09;10.35;;;5.05;;
35326;SDS011;21436;52.348;20.928;2022-08-30T06:07:40;8.98;;;5.25;;
35326;SDS011;21436;52.348;20.928;2022-08-30T06:10:09;12.57;;;5.63;;
35326;SDS011;21436;52.348;20.928;2022-08-30T06:12:38;8.43;;;5.45;;
35326;SDS011;21436;52.348;20.928;2022-08-30T06:15:06;6.22;;;5.28;;
35326;SDS011;21436;52.348;20.928;2022-08-30T06:17:34;11.95;;;4.55;;
35326;SDS011;21436;52.348;20.928;2022-08-30T06:20:01;8.50;;;5.47;;
35326;SDS011;21436;52.348;20.928;2022-08-30T06:22:29;5.25;;;3.35;;
35326;SDS011;21436;52.348;20.928;2022-08-30T06:24:56;6.68;;;4.05;;
35326;SDS011;21436;52.348;20.928;2022-08-30T06:27:24;7.22;;;3.83;;
35326;SDS011;21436;52.348;20.928;2022-08-30T06:29:51;7.35;;;4.22;;
35326;SDS011;21436;52.348;20.928;2022-08-30T06:32:19;12.93;;;5.15;;
35326;SDS011;21436;52.348;20.928;2022-08-30T06:34:47;16.38;;;5.60;;
35326;SDS011;21436;52.348;20.928;2022-08-30T06:37:15;5.03;;;4.28;;
35326;SDS011;21436;52.348;20.928;2022-08-30T06:39:56;8.95;;;3.80;;
35326;SDS011;21436;52.348;20.928;2022-08-30T06:42:25;8.32;;;3.40;;
35326;SDS011;21436;52.348;20.928;2022-08-30T06:44:59;5.70;;;3.83;;
35326;SDS011;21436;52.348;20.928;2022-08-30T06:47:28;8.43;;;4.15;;
35326;SDS011;21436;52.348;20.928;2022-08-30T06:49:55;5.78;;;3.65;;
35326;SDS011;21436;52.348;20.928;2022-08-30T06:52:24;5.25;;;3.28;;
35326;SDS011;21436;52.348;20.928;2022-08-30T06:54:53;6.68;;;3.90;;
35326;SDS011;21436;52.348;20.928;2022-08-30T06:57:21;6.05;;;4.05;;
35326;SDS011;21436;52.348;20.928;2022-08-30T06:59:48;13.10;;;4.70;;
35326;SDS011;21436;52.348;20.928;2022-08-30T07:02:22;6.95;;;4.32;;
35326;SDS011;21436;52.348;20.928;2022-08-30T07:04:50;4.90;;;3.78;;
35326;SDS011;21436;52.348;20.928;2022-08-30T07:07:18;8.27;;;4.35;;
35326;SDS011;21436;52.348;20.928;2022-08-30T07:09:45;6.75;;;3.90;;
35326;SDS011;21436;52.348;20.928;2022-08-30T07:12:14;5.30;;;3.78;;
35326;SDS011;21436;52.348;20.928;2022-08-30T07:14:41;7.38;;;3.55;;
35326;SDS011;21436;52.348;20.928;2022-08-30T07:17:09;6.07;;;3.80;;
35326;SDS011;21436;52.348;20.928;2022-08-30T07:20:01;8.52;;;4.28;;
35326;SDS011;21436;52.348;20.928;2022-08-30T07:22:31;6.95;;;3.28;;
35326;SDS011;21436;52.348;20.928;2022-08-30T07:24:59;7.97;;;3.67;;
35326;SDS011;21436;52.348;20.928;2022-08-30T07:27:27;6.45;;;3.35;;
35326;SDS011;21436;52.348;20.928;2022-08-30T07:29:54;5.85;;;4.00;;
35326;SDS011;21436;52.348;20.928;2022-08-30T07:32:24;5.75;;;3.40;;
35326;SDS011;21436;52.348;20.928;2022-08-30T07:34:52;5.32;;;3.40;;
35326;SDS011;21436;52.348;20.928;2022-08-30T07:37:19;5.93;;;3.28;;
35326;SDS011;21436;52.348;20.928;2022-08-30T07:39:46;5.72;;;3.17;;
35326;SDS011;21436;52.348;20.928;2022-08-30T07:42:14;6.03;;;2.88;;
35326;SDS011;21436;52.348;20.928;2022-08-30T07:44:42;13.50;;;3.70;;
35326;SDS011;21436;52.348;20.928;2022-08-30T07:47:10;6.32;;;3.45;;
35326;SDS011;21436;52.348;20.928;2022-08-30T07:49:38;5.18;;;2.78;;
35326;SDS011;21436;52.348;20.928;2022-08-30T07:52:05;3.25;;;2.25;;
35326;SDS011;21436;52.348;20.928;2022-08-30T07:54:33;2.90;;;2.70;;
35326;SDS011;21436;52.348;20.928;2022-08-30T07:57:00;3.35;;;2.65;;
35326;SDS011;21436;52.348;20.928;2022-08-30T07:59:28;5.78;;;2.97;;
35326;SDS011;21436;52.348;20.928;2022-08-30T08:04:28;3.00;;;2.60;;
35326;SDS011;21436;52.348;20.928;2022-08-30T08:06:56;5.13;;;2.50;;
35326;SDS011;21436;52.348;20.928;2022-08-30T08:09:23;3.97;;;2.30;;
35326;SDS011;21436;52.348;20.928;2022-08-30T08:11:51;4.57;;;2.50;;
35326;SDS011;21436;52.348;20.928;2022-08-30T08:14:18;4.32;;;2.50;;
35326;SDS011;21436;52.348;20.928;2022-08-30T08:16:47;5.72;;;3.00;;
35326;SDS011;21436;52.348;20.928;2022-08-30T08:19:15;3.75;;;2.58;;
35326;SDS011;21436;52.348;20.928;2022-08-30T08:21:43;5.65;;;2.20;;
35326;SDS011;21436;52.348;20.928;2022-08-30T08:24:11;3.97;;;2.10;;
35326;SDS011;21436;52.348;20.928;2022-08-30T08:26:39;3.47;;;2.83;;
35326;SDS011;21436;52.348;20.928;2022-08-30T08:29:11;4.15;;;2.38;;
35326;SDS011;21436;52.348;20.928;2022-08-30T08:31:38;6.40;;;2.10;;
35326;SDS011;21436;52.348;20.928;2022-08-30T08:34:07;3.53;;;2.28;;
35326;SDS011;21436;52.348;20.928;2022-08-30T08:36:37;3.30;;;2.17;;
35326;SDS011;21436;52.348;20.928;2022-08-30T08:39:05;2.70;;;2.03;;
35326;SDS011;21436;52.348;20.928;2022-08-30T08:44:18;5.97;;;2.25;;
35326;SDS011;21436;52.348;20.928;2022-08-30T08:50:05;4.10;;;2.22;;
35326;SDS011;21436;52.348;20.928;2022-08-30T08:56:10;5.38;;;1.83;;
35326;SDS011;21436;52.348;20.928;2022-08-30T08:58:42;3.67;;;2.13;;
35326;SDS011;21436;52.348;20.928;2022-08-30T09:01:16;6.63;;;2.13;;
35326;SDS011;21436;52.348;20.928;2022-08-30T09:03:45;3.25;;;2.03;;
35326;SDS011;21436;52.348;20.928;2022-08-30T09:09:19;3.20;;;1.75;;
35326;SDS011;21436;52.348;20.928;2022-08-30T09:11:49;3.55;;;1.83;;
35326;SDS011;21436;52.348;20.928;2022-08-30T09:14:29;6.45;;;2.20;;
35326;SDS011;21436;52.348;20.928;2022-08-30T09:17:02;5.95;;;1.95;;
35326;SDS011;21436;52.348;20.928;2022-08-30T09:19:39;2.17;;;1.88;;
35326;SDS011;21436;52.348;20.928;2022-08-30T09:25:03;2.00;;;1.50;;
35326;SDS011;21436;52.348;20.928;2022-08-30T09:27:35;5.30;;;2.00;;
35326;SDS011;21436;52.348;20.928;2022-08-30T09:30:57;2.55;;;1.90;;
35326;SDS011;21436;52.348;20.928;2022-08-30T09:33:05;4.20;;;1.50;;
35326;SDS011;21436;52.348;20.928;2022-08-30T09:35:44;3.58;;;1.50;;
35326;SDS011;21436;52.348;20.928;2022-08-30T09:38:21;4.07;;;1.60;;
35326;SDS011;21436;52.348;20.928;2022-08-30T09:40:54;2.03;;;1.48;;
35326;SDS011;21436;52.348;20.928;2022-08-30T09:43:30;2.70;;;1.50;;
35326;SDS011;21436;52.348;20.928;2022-08-30T09:54:15;1.70;;;1.10;;
35326;SDS011;21436;52.348;20.928;2022-08-30T10:05:27;1.27;;;1.17;;
35326;SDS011;21436;52.348;20.928;2022-08-30T10:08:05;1.98;;;1.30;;
35326;SDS011;21436;52.348;20.928;2022-08-30T10:14:00;1.85;;;1.20;;
35326;SDS011;21436;52.348;20.928;2022-08-30T10:22:01;2.70;;;1.17;;
35326;SDS011;21436;52.348;20.928;2022-08-30T10:24:36;1.67;;;0.93;;
35326;SDS011;21436;52.348;20.928;2022-08-30T10:27:12;4.38;;;1.33;;
35326;SDS011;21436;52.348;20.928;2022-08-30T10:33:11;1.53;;;1.13;;
35326;SDS011;21436;52.348;20.928;2022-08-30T10:35:42;2.35;;;1.20;;
35326;SDS011;21436;52.348;20.928;2022-08-30T10:40:54;1.52;;;1.05;;
35326;SDS011;21436;52.348;20.928;2022-08-30T10:49:28;3.55;;;1.05;;
35326;SDS011;21436;52.348;20.928;2022-08-30T10:52:07;2.65;;;0.93;;
35326;SDS011;21436;52.348;20.928;2022-08-30T10:57:48;5.45;;;0.90;;
35326;SDS011;21436;52.348;20.928;2022-08-30T11:01:04;1.25;;;0.73;;
35326;SDS011;21436;52.348;20.928;2022-08-30T11:14:09;2.88;;;0.88;;
35326;SDS011;21436;52.348;20.928;2022-08-30T11:16:42;1.52;;;0.98;;
35326;SDS011;21436;52.348;20.928;2022-08-30T11:19:22;5.07;;;0.95;;
35326;SDS011;21436;52.348;20.928;2022-08-30T11:22:15;1.67;;;0.98;;
35326;SDS011;21436;52.348;20.928;2022-08-30T11:25:46;2.25;;;1.02;;
35326;SDS011;21436;52.348;20.928;2022-08-30T11:27:48;1.95;;;0.68;;
35326;SDS011;21436;52.348;20.928;2022-08-30T11:33:00;1.80;;;0.65;;
35326;SDS011;21436;52.348;20.928;2022-08-30T11:35:40;1.97;;;0.77;;
35326;SDS011;21436;52.348;20.928;2022-08-30T11:46:43;0.70;;;0.60;;
35326;SDS011;21436;52.348;20.928;2022-08-30T11:49:21;2.30;;;0.98;;
35326;SDS011;21436;52.348;20.928;2022-08-30T11:52:08;0.73;;;0.65;;
35326;SDS011;21436;52.348;20.928;2022-08-30T11:57:49;1.50;;;0.70;;
35326;SDS011;21436;52.348;20.928;2022-08-30T12:03:07;3.22;;;0.63;;
35326;SDS011;21436;52.348;20.928;2022-08-30T12:06:02;1.80;;;0.57;;
35326;SDS011;21436;52.348;20.928;2022-08-30T12:08:43;2.45;;;0.57;;
35326;SDS011;21436;52.348;20.928;2022-08-30T12:13:49;1.35;;;0.65;;
35326;SDS011;21436;52.348;20.928;2022-08-30T12:16:22;1.20;;;0.60;;
35326;SDS011;21436;52.348;20.928;2022-08-30T12:19:30;3.72;;;0.80;;
35326;SDS011;21436;52.348;20.928;2022-08-30T12:22:00;2.10;;;0.60;;
35326;SDS011;21436;52.348;20.928;2022-08-30T12:29:59;2.17;;;0.63;;
35326;SDS011;21436;52.348;20.928;2022-08-30T12:32:30;6.13;;;0.55;;
35326;SDS011;21436;52.348;20.928;2022-08-30T12:34:59;0.88;;;0.50;;
35326;SDS011;21436;52.348;20.928;2022-08-30T12:37:33;0.63;;;0.40;;
35326;SDS011;21436;52.348;20.928;2022-08-30T12:40:11;1.10;;;0.50;;
35326;SDS011;21436;52.348;20.928;2022-08-30T12:42:52;3.70;;;0.60;;
35326;SDS011;21436;52.348;20.928;2022-08-30T12:45:23;1.67;;;0.50;;
35326;SDS011;21436;52.348;20.928;2022-08-30T12:47:55;0.77;;;0.60;;
35326;SDS011;21436;52.348;20.928;2022-08-30T12:50:27;2.78;;;0.57;;
35326;SDS011;21436;52.348;20.928;2022-08-30T12:53:02;2.58;;;0.85;;
35326;SDS011;21436;52.348;20.928;2022-08-30T12:58:39;1.13;;;0.50;;
35326;SDS011;21436;52.348;20.928;2022-08-30T13:04:01;1.02;;;0.70;;
35326;SDS011;21436;52.348;20.928;2022-08-30T13:06:40;3.67;;;0.70;;
35326;SDS011;21436;52.348;20.928;2022-08-30T13:12:24;3.45;;;0.60;;
35326;SDS011;21436;52.348;20.928;2022-08-30T13:14:52;2.85;;;0.43;;
35326;SDS011;21436;52.348;20.928;2022-08-30T13:17:21;1.30;;;0.50;;
35326;SDS011;21436;52.348;20.928;2022-08-30T13:20:03;5.28;;;0.60;;
35326;SDS011;21436;52.348;20.928;2022-08-30T13:22:35;1.33;;;1.05;;
35326;SDS011;21436;52.348;20.928;2022-08-30T13:25:05;3.60;;;0.90;;
35326;SDS011;21436;52.348;20.928;2022-08-30T13:27:34;3.30;;;1.50;;
35326;SDS011;21436;52.348;20.928;2022-08-30T13:30:10;2.55;;;1.40;;
35326;SDS011;21436;52.348;20.928;2022-08-30T13:32:40;2.17;;;1.38;;
35326;SDS011;21436;52.348;20.928;2022-08-30T13:35:10;2.25;;;1.50;;
35326;SDS011;21436;52.348;20.928;2022-08-30T13:37:38;3.25;;;1.50;;
35326;SDS011;21436;52.348;20.928;2022-08-30T13:40:17;1.88;;;1.20;;
35326;SDS011;21436;52.348;20.928;2022-08-30T13:42:46;1.38;;;0.63;;
35326;SDS011;21436;52.348;20.928;2022-08-30T13:45:14;1.65;;;1.30;;
35326;SDS011;21436;52.348;20.928;2022-08-30T13:48:03;2.80;;;0.80;;
35326;SDS011;21436;52.348;20.928;2022-08-30T13:50:32;2.67;;;0.73;;
35326;SDS011;21436;52.348;20.928;2022-08-30T13:52:59;0.80;;;0.70;;
35326;SDS011;21436;52.348;20.928;2022-08-30T13:55:27;4.03;;;0.65;;
35326;SDS011;21436;52.348;20.928;2022-08-30T13:57:55;1.27;;;0.60;;
35326;SDS011;21436;52.348;20.928;2022-08-30T14:00:24;2.25;;;0.57;;
35326;SDS011;21436;52.348;20.928;2022-08-30T14:02:53;1.33;;;0.50;;
35326;SDS011;21436;52.348;20.928;2022-08-30T14:05:27;1.25;;;0.63;;
35326;SDS011;21436;52.348;20.928;2022-08-30T14:08:21;0.73;;;0.40;;
35326;SDS011;21436;52.348;20.928;2022-08-30T14:11:13;0.52;;;0.50;;
35326;SDS011;21436;52.348;20.928;2022-08-30T14:13:45;1.20;;;0.60;;
35326;SDS011;21436;52.348;20.928;2022-08-30T14:16:34;0.63;;;0.40;;
35326;SDS011;21436;52.348;20.928;2022-08-30T14:19:04;0.65;;;0.52;;
35326;SDS011;21436;52.348;20.928;2022-08-30T14:21:33;2.25;;;0.95;;
35326;SDS011;21436;52.348;20.928;2022-08-30T14:24:02;1.33;;;0.70;;
35326;SDS011;21436;52.348;20.928;2022-08-30T14:26:41;2.42;;;0.80;;
35326;SDS011;21436;52.348;20.928;2022-08-30T14:29:24;0.77;;;0.60;;
35326;SDS011;21436;52.348;20.928;2022-08-30T14:32:04;0.77;;;0.77;;
35326;SDS011;21436;52.348;20.928;2022-08-30T14:34:33;4.53;;;0.93;;
35326;SDS011;21436;52.348;20.928;2022-08-30T14:37:00;1.30;;;0.70;;
35326;SDS011;21436;52.348;20.928;2022-08-30T14:39:28;2.40;;;0.88;;
35326;SDS011;21436;52.348;20.928;2022-08-30T14:41:55;1.95;;;0.40;;
35326;SDS011;21436;52.348;20.928;2022-08-30T14:44:29;3.70;;;0.80;;
35326;SDS011;21436;52.348;20.928;2022-08-30T14:47:16;1.30;;;0.43;;
35326;SDS011;21436;52.348;20.928;2022-08-30T14:49:44;2.60;;;0.80;;
35326;SDS011;21436;52.348;20.928;2022-08-30T14:52:12;0.65;;;0.52;;
35326;SDS011;21436;52.348;20.928;2022-08-30T14:54:40;3.00;;;0.98;;
35326;SDS011;21436;52.348;20.928;2022-08-30T14:57:07;4.43;;;0.77;;
35326;SDS011;21436;52.348;20.928;2022-08-30T14:59:35;2.42;;;0.90;;
35326;SDS011;21436;52.348;20.928;2022-08-30T15:02:02;1.08;;;0.60;;
35326;SDS011;21436;52.348;20.928;2022-08-30T15:04:30;4.85;;;0.85;;
35326;SDS011;21436;52.348;20.928;2022-08-30T15:06:57;4.25;;;0.65;;
35326;SDS011;21436;52.348;20.928;2022-08-30T15:09:25;2.30;;;0.75;;
35326;SDS011;21436;52.348;20.928;2022-08-30T15:11:54;2.53;;;0.90;;
35326;SDS011;21436;52.348;20.928;2022-08-30T15:14:24;4.90;;;0.70;;
35326;SDS011;21436;52.348;20.928;2022-08-30T15:16:54;3.15;;;1.02;;
35326;SDS011;21436;52.348;20.928;2022-08-30T15:19:24;3.10;;;0.90;;
35326;SDS011;21436;52.348;20.928;2022-08-30T15:21:52;2.15;;;0.90;;
35326;SDS011;21436;52.348;20.928;2022-08-30T15:24:21;1.52;;;0.73;;
35326;SDS011;21436;52.348;20.928;2022-08-30T15:26:55;1.25;;;0.90;;
35326;SDS011;21436;52.348;20.928;2022-08-30T15:29:25;2.90;;;0.90;;
35326;SDS011;21436;52.348;20.928;2022-08-30T15:31:56;3.58;;;1.25;;
35326;SDS011;21436;52.348;20.928;2022-08-30T15:34:25;1.45;;;1.00;;
35326;SDS011;21436;52.348;20.928;2022-08-30T15:36:54;2.33;;;1.30;;
35326;SDS011;21436;52.348;20.928;2022-08-30T15:39:22;4.38;;;1.73;;
35326;SDS011;21436;52.348;20.928;2022-08-30T15:41:51;3.55;;;1.70;;
35326;SDS011;21436;52.348;20.928;2022-08-30T15:44:24;3.58;;;1.35;;
35326;SDS011;21436;52.348;20.928;2022-08-30T15:46:52;4.95;;;1.83;;
35326;SDS011;21436;52.348;20.928;2022-08-30T15:49:21;5.40;;;2.50;;
35326;SDS011;21436;52.348;20.928;2022-08-30T15:51:50;3.47;;;1.98;;
35326;SDS011;21436;52.348;20.928;2022-08-30T15:54:20;3.35;;;2.30;;
35326;SDS011;21436;52.348;20.928;2022-08-30T15:56:49;6.05;;;2.97;;
35326;SDS011;21436;52.348;20.928;2022-08-30T15:59:26;4.20;;;2.78;;
35326;SDS011;21436;52.348;20.928;2022-08-30T16:01:55;5.20;;;1.90;;
35326;SDS011;21436;52.348;20.928;2022-08-30T16:04:23;3.47;;;1.88;;
35326;SDS011;21436;52.348;20.928;2022-08-30T16:06:51;2.60;;;1.70;;
35326;SDS011;21436;52.348;20.928;2022-08-30T16:09:20;4.65;;;1.83;;
35326;SDS011;21436;52.348;20.928;2022-08-30T16:11:47;4.93;;;1.60;;
35326;SDS011;21436;52.348;20.928;2022-08-30T16:14:16;4.22;;;1.48;;
35326;SDS011;21436;52.348;20.928;2022-08-30T16:16:44;2.97;;;1.60;;
35326;SDS011;21436;52.348;20.928;2022-08-30T16:19:12;4.75;;;1.55;;
35326;SDS011;21436;52.348;20.928;2022-08-30T16:21:40;3.78;;;1.95;;
35326;SDS011;21436;52.348;20.928;2022-08-30T16:24:09;4.75;;;3.28;;
35326;SDS011;21436;52.348;20.928;2022-08-30T16:26:40;5.32;;;2.22;;
35326;SDS011;21436;52.348;20.928;2022-08-30T16:29:09;5.80;;;1.80;;
35326;SDS011;21436;52.348;20.928;2022-08-30T16:31:39;4.15;;;1.80;;
35326;SDS011;21436;52.348;20.928;2022-08-30T16:34:11;2.97;;;1.30;;
35326;SDS011;21436;52.348;20.928;2022-08-30T16:39:11;6.82;;;2.00;;
35326;SDS011;21436;52.348;20.928;2022-08-30T16:41:39;1.60;;;1.10;;
35326;SDS011;21436;52.348;20.928;2022-08-30T16:44:10;2.97;;;1.33;;